Time;durP1;ratioP1;P1;durP2;ratioP2;P2;SDS_P1;SDS_P2;PMS_P1;PMS_P2;Temp;Humidity;BMP_temperature;BMP_pressure;BME280_temperature;BME280_humidity;BME280_pressure;Samples;Min_cycle;Max_cycle;Signal;HPM_P1;HPM_P2
2023/11/01 00:00:51;;;;;;;0.40;0.40;;;9.60;99.90;;;;;;5095303;28;20451;-79
2023/11/01 00:03:18;;;;;;;2.87;0.50;;;9.60;99.90;;;;;;5094982;28;20542;-79
2023/11/01 00:05:46;;;;;;;0.40;0.40;;;9.60;99.90;;;;;;5095170;28;20455;-80
2023/11/01 00:08:13;;;;;;;0.40;0.40;;;9.60;99.90;;;;;;5095112;28;20432;-79
2023/11/01 00:10:40;;;;;;;0.40;0.30;;;9.60;99.90;;;;;;5095115;28;20448;-79
2023/11/01 00:13:08;;;;;;;1.17;0.50;;;9.60;99.90;;;;;;5094971;28;20451;-79
2023/11/01 00:15:35;;;;;;;0.40;0.37;;;9.50;99.90;;;;;;5094992;28;20452;-79
2023/11/01 00:18:02;;;;;;;0.90;0.40;;;9.60;99.90;;;;;;5094859;28;20588;-79
2023/11/01 00:20:29;;;;;;;0.50;0.50;;;9.60;99.90;;;;;;5094591;28;20451;-79
2023/11/01 00:22:55;;;;;;;0.30;0.30;;;9.60;99.90;;;;;;5094746;28;20447;-79
2023/11/01 00:25:22;;;;;;;1.27;0.83;;;9.60;99.90;;;;;;5094872;28;20446;-79
2023/11/01 00:27:49;;;;;;;0.40;0.40;;;9.60;99.90;;;;;;5095156;28;20443;-79
2023/11/01 00:30:17;;;;;;;0.40;0.40;;;9.60;99.90;;;;;;5094754;28;20450;-80
2023/11/01 00:32:44;;;;;;;0.40;0.37;;;9.70;99.90;;;;;;5094663;28;20447;-80
2023/11/01 00:35:10;;;;;;;0.50;0.40;;;9.60;99.90;;;;;;5094370;28;20475;-79
2023/11/01 00:37:37;;;;;;;0.90;0.40;;;9.70;99.90;;;;;;5094186;28;20480;-80
2023/11/01 00:40:05;;;;;;;0.40;0.30;;;9.60;99.90;;;;;;5094713;28;20443;-80
2023/11/01 00:42:31;;;;;;;0.87;0.50;;;9.60;99.90;;;;;;5094146;28;20819;-80
2023/11/01 00:44:58;;;;;;;0.30;0.30;;;9.70;99.90;;;;;;5094100;28;20466;-80
2023/11/01 00:47:26;;;;;;;0.80;0.30;;;9.70;99.90;;;;;;5094068;28;20440;-80
2023/11/01 00:49:53;;;;;;;0.60;0.37;;;9.60;99.90;;;;;;5094345;28;20440;-80
2023/11/01 00:52:19;;;;;;;0.30;0.30;;;9.70;99.90;;;;;;5094305;28;20447;-80
2023/11/01 00:54:46;;;;;;;0.40;0.33;;;9.80;99.90;;;;;;5093856;28;21011;-80
2023/11/01 00:57:13;;;;;;;0.37;0.30;;;9.80;99.90;;;;;;5094043;28;20494;-79
2023/11/01 00:59:40;;;;;;;0.40;0.30;;;9.80;99.90;;;;;;5094197;28;20458;-79
2023/11/01 01:02:06;;;;;;;2.60;0.30;;;9.90;99.90;;;;;;5093789;28;20523;-79
2023/11/01 01:04:35;;;;;;;0.40;0.40;;;9.90;99.90;;;;;;5094011;28;20464;-79
2023/11/01 01:07:01;;;;;;;0.30;0.30;;;9.90;99.90;;;;;;5094054;28;20451;-80
2023/11/01 01:09:28;;;;;;;0.47;0.47;;;9.80;99.90;;;;;;5094002;28;20435;-80
2023/11/01 01:11:55;;;;;;;0.30;0.30;;;9.80;99.90;;;;;;5093966;28;20440;-80
2023/11/01 01:14:21;;;;;;;0.70;0.40;;;9.80;99.90;;;;;;5093857;28;20471;-79
2023/11/01 01:16:48;;;;;;;0.40;0.40;;;9.80;99.90;;;;;;5093586;28;20933;-79
2023/11/01 01:19:15;;;;;;;1.93;0.60;;;9.80;99.90;;;;;;5093782;28;20490;-80
2023/11/01 01:21:44;;;;;;;0.40;0.30;;;9.80;99.90;;;;;;5093830;28;20440;-80
2023/11/01 01:24:10;;;;;;;0.40;0.30;;;9.70;99.90;;;;;;5093696;28;20468;-79
2023/11/01 01:26:37;;;;;;;0.30;0.30;;;9.80;99.90;;;;;;5093761;28;20443;-79
2023/11/01 01:29:04;;;;;;;0.43;0.43;;;9.80;99.90;;;;;;5093679;28;20440;-79
2023/11/01 01:31:31;;;;;;;0.60;0.30;;;9.70;99.90;;;;;;5093336;28;20941;-79
2023/11/01 01:33:58;;;;;;;0.50;0.30;;;9.60;99.90;;;;;;5093537;28;20459;-80
2023/11/01 01:36:24;;;;;;;0.40;0.30;;;9.60;99.90;;;;;;5093298;28;20803;-80
2023/11/01 01:38:52;;;;;;;2.20;0.40;;;9.60;99.90;;;;;;5093460;28;20471;-79
2023/11/01 01:41:19;;;;;;;2.20;0.30;;;9.60;99.90;;;;;;5093621;28;20963;-80
2023/11/01 01:43:46;;;;;;;0.40;0.40;;;9.60;99.90;;;;;;5096485;28;20830;-79
2023/11/01 01:46:15;;;;;;;0.40;0.40;;;9.60;99.90;;;;;;5093215;28;21006;-79
2023/11/01 01:48:43;;;;;;;3.13;0.40;;;9.60;99.90;;;;;;5093415;28;20519;-79
2023/11/01 01:51:11;;;;;;;0.40;0.40;;;9.60;99.90;;;;;;5093432;28;20443;-79
2023/11/01 01:53:41;;;;;;;0.30;0.30;;;9.60;99.90;;;;;;5093030;28;20465;-79
2023/11/01 01:56:10;;;;;;;0.30;0.30;;;9.70;99.90;;;;;;5093377;28;20475;-80
2023/11/01 01:58:38;;;;;;;0.50;0.30;;;9.70;99.90;;;;;;5097121;28;20831;-80
2023/11/01 02:01:06;;;;;;;2.00;0.60;;;9.60;99.90;;;;;;5097420;28;20443;-80
2023/11/01 02:03:33;;;;;;;1.03;0.40;;;9.70;99.90;;;;;;5097024;28;20487;-80
2023/11/01 02:06:00;;;;;;;0.30;0.30;;;9.70;99.90;;;;;;5097182;28;20972;-80
2023/11/01 02:08:27;;;;;;;0.40;0.40;;;9.70;99.90;;;;;;5097462;28;20420;-79
2023/11/01 02:10:54;;;;;;;0.30;0.30;;;9.70;99.90;;;;;;5097089;28;20453;-79
2023/11/01 02:13:22;;;;;;;1.07;0.50;;;9.70;99.90;;;;;;5097294;28;20464;-80
2023/11/01 02:15:49;;;;;;;0.40;0.30;;;9.70;99.90;;;;;;5097343;28;20450;-80
2023/11/01 02:18:16;;;;;;;0.60;0.40;;;9.60;99.90;;;;;;5097300;28;20464;-79
2023/11/01 02:20:46;;;;;;;0.40;0.40;;;9.60;99.90;;;;;;5096927;28;20849;-79
2023/11/01 02:23:15;;;;;;;0.60;0.40;;;9.60;99.90;;;;;;5096816;28;20444;-80
2023/11/01 02:25:43;;;;;;;0.33;0.30;;;9.50;99.90;;;;;;5097176;28;20494;-80
2023/11/01 02:28:12;;;;;;;0.30;0.30;;;9.50;99.90;;;;;;5097091;28;20485;-80
2023/11/01 02:30:40;;;;;;;0.40;0.30;;;9.50;99.90;;;;;;5097309;28;20444;-80
2023/11/01 02:33:07;;;;;;;0.50;0.50;;;9.50;99.90;;;;;;5096919;28;20504;-79
2023/11/01 02:35:34;;;;;;;0.50;0.40;;;9.50;99.90;;;;;;5096930;28;20487;-79
2023/11/01 02:38:01;;;;;;;0.30;0.30;;;9.50;99.90;;;;;;5096662;28;20482;-79
2023/11/01 02:40:28;;;;;;;0.63;0.60;;;9.50;99.90;;;;;;5096910;28;20450;-79
2023/11/01 02:42:56;;;;;;;0.90;0.50;;;9.40;99.90;;;;;;5096805;28;20443;-79
2023/11/01 02:45:23;;;;;;;1.27;0.50;;;9.30;99.90;;;;;;5096444;28;20813;-79
2023/11/01 02:47:50;;;;;;;4.80;0.50;;;9.30;99.90;;;;;;5096713;28;20469;-79
2023/11/01 02:50:19;;;;;;;0.40;0.40;;;9.30;99.90;;;;;;5096709;28;20455;-80
2023/11/01 02:52:46;;;;;;;0.40;0.30;;;9.30;99.90;;;;;;5096616;28;20450;-80
2023/11/01 02:55:15;;;;;;;0.33;0.30;;;9.30;99.90;;;;;;5096540;28;20456;-80
2023/11/01 02:57:42;;;;;;;2.40;0.40;;;9.20;99.90;;;;;;5096560;28;20504;-80
2023/11/01 03:00:18;;;;;;;0.40;0.40;;;9.30;99.90;;;;;;5096090;28;20563;-79
2023/11/01 03:02:45;;;;;;;0.30;0.30;;;9.20;99.90;;;;;;5096058;28;20479;-79
2023/11/01 03:05:12;;;;;;;0.30;0.30;;;9.30;99.90;;;;;;5096580;28;20464;-79
2023/11/01 03:07:39;;;;;;;0.40;0.30;;;9.30;99.90;;;;;;5095875;28;20808;-80
2023/11/01 03:10:07;;;;;;;1.53;0.40;;;9.20;99.90;;;;;;5096199;28;20440;-80
2023/11/01 03:12:34;;;;;;;1.93;0.50;;;9.30;99.90;;;;;;5096238;28;20448;-80
2023/11/01 03:15:01;;;;;;;1.37;0.43;;;9.30;99.90;;;;;;5095845;28;20464;-80
2023/11/01 03:17:29;;;;;;;0.30;0.30;;;9.30;99.90;;;;;;5096508;28;20437;-80
2023/11/01 03:19:55;;;;;;;1.03;0.50;;;9.30;99.90;;;;;;5095993;28;20487;-79
2023/11/01 03:22:23;;;;;;;0.40;0.40;;;9.30;99.90;;;;;;5095756;28;20937;-79
2023/11/01 03:24:49;;;;;;;0.40;0.30;;;9.30;99.90;;;;;;5095708;28;20973;-80
2023/11/01 03:27:16;;;;;;;0.40;0.40;;;9.30;99.90;;;;;;5096051;28;20440;-80
2023/11/01 03:29:43;;;;;;;0.40;0.40;;;9.30;99.90;;;;;;5095925;28;20440;-80
2023/11/01 03:32:10;;;;;;;0.30;0.30;;;9.30;99.90;;;;;;5095858;28;20470;-80
2023/11/01 03:34:38;;;;;;;0.80;0.50;;;9.30;99.90;;;;;;5095449;28;20468;-80
2023/11/01 03:37:05;;;;;;;0.43;0.40;;;9.30;99.90;;;;;;5095764;28;20451;-80
2023/11/01 03:39:33;;;;;;;0.40;0.40;;;9.30;99.90;;;;;;5095620;28;20486;-80
2023/11/01 03:42:04;;;;;;;1.70;0.50;;;9.30;99.90;;;;;;5095389;28;20452;-80
2023/11/01 03:44:32;;;;;;;0.40;0.40;;;9.30;99.90;;;;;;5095612;28;20467;-80
2023/11/01 03:46:58;;;;;;;0.33;0.33;;;9.20;99.90;;;;;;5095605;28;20443;-80
2023/11/01 03:49:26;;;;;;;0.43;0.40;;;9.20;99.90;;;;;;5095814;28;20440;-80
2023/11/01 03:51:54;;;;;;;0.40;0.40;;;9.20;99.90;;;;;;5095191;28;20933;-80
2023/11/01 03:54:20;;;;;;;0.97;0.47;;;9.20;99.90;;;;;;5095316;28;20464;-80
2023/11/01 03:56:47;;;;;;;0.30;0.30;;;9.10;99.90;;;;;;5095439;28;20455;-80
2023/11/01 03:59:14;;;;;;;0.40;0.40;;;9.10;99.90;;;;;;5095542;28;20486;-80
2023/11/01 04:01:41;;;;;;;3.90;0.77;;;9.10;99.90;;;;;;5094780;28;20479;-80
2023/11/01 04:04:07;;;;;;;0.50;0.40;;;9.00;99.90;;;;;;5095260;28;20469;-80
2023/11/01 04:06:34;;;;;;;0.40;0.30;;;9.00;99.90;;;;;;5094871;28;20932;-80
2023/11/01 04:09:06;;;;;;;0.40;0.40;;;9.00;99.90;;;;;;5095423;28;20440;-80
2023/11/01 04:11:33;;;;;;;0.40;0.40;;;8.90;99.90;;;;;;5095222;28;20444;-81
2023/11/01 04:14:00;;;;;;;0.63;0.30;;;8.80;99.90;;;;;;5095018;28;20472;-81
2023/11/01 04:16:28;;;;;;;4.10;0.50;;;8.80;99.90;;;;;;5095025;28;20443;-81
2023/11/01 04:18:56;;;;;;;0.30;0.30;;;8.80;99.90;;;;;;5094713;28;20487;-81
2023/11/01 04:21:23;;;;;;;0.60;0.40;;;8.80;99.90;;;;;;5094513;28;20444;-81
2023/11/01 04:23:51;;;;;;;0.40;0.30;;;8.80;99.90;;;;;;5094795;28;20464;-81
2023/11/01 04:26:20;;;;;;;0.40;0.30;;;8.70;99.90;;;;;;5094744;28;20478;-81
2023/11/01 04:28:46;;;;;;;0.43;0.37;;;8.70;99.90;;;;;;5094920;28;20440;-81
2023/11/01 04:31:13;;;;;;;0.40;0.40;;;8.70;99.90;;;;;;5094729;28;20451;-81
2023/11/01 04:33:40;;;;;;;0.40;0.33;;;8.60;99.90;;;;;;5094621;28;20459;-81
2023/11/01 04:36:08;;;;;;;2.00;0.60;;;8.60;99.90;;;;;;5094967;28;20421;-81
2023/11/01 04:38:35;;;;;;;0.30;0.30;;;8.70;99.90;;;;;;5094168;28;20964;-81
2023/11/01 04:41:02;;;;;;;0.50;0.47;;;8.70;99.90;;;;;;5094253;28;20448;-81
2023/11/01 04:43:30;;;;;;;0.30;0.30;;;8.70;99.90;;;;;;5094551;28;20463;-81
2023/11/01 04:45:57;;;;;;;0.30;0.30;;;8.70;99.90;;;;;;5094452;28;20467;-81
2023/11/01 04:48:24;;;;;;;0.40;0.40;;;8.60;99.90;;;;;;5094421;28;20455;-81
2023/11/01 04:50:50;;;;;;;0.40;0.40;;;8.70;99.90;;;;;;5094384;28;20448;-81
2023/11/01 04:53:17;;;;;;;1.60;0.30;;;8.60;99.90;;;;;;5093943;28;20996;-81
2023/11/01 04:55:44;;;;;;;0.40;0.30;;;8.60;99.90;;;;;;5094052;28;20435;-81
2023/11/01 04:58:11;;;;;;;0.47;0.40;;;8.50;99.90;;;;;;5094232;28;20448;-81
2023/11/01 05:00:39;;;;;;;0.40;0.30;;;8.50;99.90;;;;;;5093735;28;20995;-81
2023/11/01 05:03:05;;;;;;;0.50;0.37;;;8.60;99.90;;;;;;5093839;28;20475;-81
2023/11/01 05:05:33;;;;;;;0.40;0.40;;;8.60;99.90;;;;;;5094111;28;20451;-81
2023/11/01 05:08:00;;;;;;;0.90;0.47;;;8.60;99.90;;;;;;5094056;28;20444;-81
2023/11/01 05:10:28;;;;;;;1.63;0.40;;;8.60;99.90;;;;;;5093686;28;20880;-81
2023/11/01 05:12:54;;;;;;;1.20;0.50;;;8.70;99.90;;;;;;5093971;28;20448;-81
2023/11/01 05:15:21;;;;;;;1.47;0.40;;;8.60;99.90;;;;;;5093976;28;21058;-81
2023/11/01 05:17:51;;;;;;;0.60;0.40;;;8.70;99.90;;;;;;5097531;28;20444;-80
2023/11/01 05:20:17;;;;;;;0.40;0.30;;;8.70;99.90;;;;;;5097467;28;20991;-81
2023/11/01 05:22:44;;;;;;;0.30;0.30;;;8.70;99.90;;;;;;5093838;28;20435;-81
2023/11/01 05:25:14;;;;;;;0.30;0.30;;;8.80;99.90;;;;;;5093691;28;20468;-81
2023/11/01 05:27:41;;;;;;;0.40;0.40;;;8.70;99.90;;;;;;5093475;28;20489;-81
2023/11/01 05:30:14;;;;;;;0.83;0.30;;;8.70;99.90;;;;;;5093705;28;20451;-81
2023/11/01 05:32:41;;;;;;;0.50;0.30;;;8.80;99.90;;;;;;5093557;28;20429;-80
2023/11/01 05:35:12;;;;;;;2.97;0.90;;;8.70;99.90;;;;;;5093246;28;20472;-80
2023/11/01 05:37:39;;;;;;;0.40;0.30;;;8.80;99.90;;;;;;5093629;28;20432;-80
2023/11/01 05:40:13;;;;;;;0.40;0.37;;;8.70;99.90;;;;;;5093571;28;20502;-81
2023/11/01 05:42:40;;;;;;;0.40;0.33;;;8.70;99.90;;;;;;5093622;28;20431;-81
2023/11/01 05:45:08;;;;;;;0.37;0.27;;;8.70;99.90;;;;;;5093217;28;20444;-81
2023/11/01 05:47:35;;;;;;;0.40;0.40;;;8.70;99.90;;;;;;5093292;28;20443;-81
2023/11/01 05:50:06;;;;;;;0.70;0.43;;;8.70;99.90;;;;;;5093531;28;20458;-81
2023/11/01 05:52:34;;;;;;;0.47;0.40;;;8.70;99.90;;;;;;5093708;28;20441;-81
2023/11/01 05:55:01;;;;;;;0.40;0.40;;;8.80;99.90;;;;;;5093395;28;20462;-80
2023/11/01 05:57:28;;;;;;;0.30;0.30;;;8.80;99.90;;;;;;5093563;28;20440;-80
2023/11/01 05:59:54;;;;;;;0.30;0.30;;;8.80;99.90;;;;;;5093330;28;20483;-81
2023/11/01 06:02:21;;;;;;;0.40;0.30;;;8.80;99.90;;;;;;5093078;28;20915;-81
2023/11/01 06:04:48;;;;;;;0.30;0.30;;;8.70;99.90;;;;;;5093311;28;20472;-81
2023/11/01 06:07:16;;;;;;;0.37;0.30;;;8.70;99.90;;;;;;5093332;28;20447;-81
2023/11/01 06:09:44;;;;;;;0.40;0.30;;;8.70;99.90;;;;;;5093263;28;20440;-81
2023/11/01 06:12:11;;;;;;;0.30;0.30;;;8.80;99.90;;;;;;5093282;28;20451;-81
2023/11/01 06:14:38;;;;;;;0.90;0.40;;;8.70;99.90;;;;;;5093138;28;20823;-81
2023/11/01 06:17:05;;;;;;;0.53;0.30;;;8.70;99.90;;;;;;5092972;28;20436;-81
2023/11/01 06:19:34;;;;;;;1.10;0.40;;;8.70;99.90;;;;;;5093107;28;20479;-81
2023/11/01 06:22:04;;;;;;;0.40;0.40;;;8.70;99.90;;;;;;5093104;28;20440;-80
2023/11/01 06:24:31;;;;;;;0.70;0.50;;;8.70;99.90;;;;;;5093037;28;20559;-80
2023/11/01 06:27:01;;;;;;;0.40;0.30;;;8.70;99.90;;;;;;5092959;28;20448;-80
2023/11/01 06:29:27;;;;;;;0.70;0.33;;;8.80;99.90;;;;;;5093132;28;20444;-81
2023/11/01 06:31:54;;;;;;;1.23;0.53;;;8.70;99.90;;;;;;5093087;28;20502;-81
2023/11/01 06:34:21;;;;;;;0.30;0.30;;;8.70;99.90;;;;;;5092999;28;20825;-81
2023/11/01 06:36:48;;;;;;;0.60;0.60;;;8.70;99.90;;;;;;5092980;28;20447;-81
2023/11/01 06:39:14;;;;;;;0.40;0.40;;;8.80;99.90;;;;;;5092921;28;20443;-81
2023/11/01 06:41:41;;;;;;;1.33;0.73;;;8.80;99.90;;;;;;5092667;28;20814;-81
2023/11/01 06:44:09;;;;;;;0.40;0.33;;;8.90;99.90;;;;;;5095259;28;20475;-80
2023/11/01 06:46:36;;;;;;;0.40;0.30;;;8.90;99.90;;;;;;5096780;28;20451;-81
2023/11/01 06:49:03;;;;;;;0.40;0.30;;;8.90;99.90;;;;;;5096726;28;20444;-81
2023/11/01 06:51:29;;;;;;;0.30;0.30;;;8.90;99.90;;;;;;5096687;28;20444;-81
2023/11/01 06:53:56;;;;;;;0.30;0.30;;;9.00;99.90;;;;;;5096563;28;20463;-81
2023/11/01 06:56:23;;;;;;;1.40;0.40;;;9.10;99.90;;;;;;5096618;28;20447;-80
2023/11/01 06:58:49;;;;;;;1.50;0.50;;;9.10;99.90;;;;;;5096588;28;20940;-81
2023/11/01 07:01:17;;;;;;;1.07;0.60;;;9.20;99.90;;;;;;5096464;28;20480;-81
2023/11/01 07:03:44;;;;;;;0.47;0.40;;;9.20;99.90;;;;;;5096504;28;20468;-81
2023/11/01 07:06:11;;;;;;;0.57;0.50;;;9.20;99.90;;;;;;5096400;28;20448;-81
2023/11/01 07:08:42;;;;;;;0.40;0.40;;;9.10;99.90;;;;;;5096313;28;20456;-81
2023/11/01 07:11:09;;;;;;;0.40;0.40;;;9.20;99.90;;;;;;5096357;28;20428;-81
2023/11/01 07:13:35;;;;;;;0.90;0.40;;;9.20;99.90;;;;;;5096412;28;20466;-81
2023/11/01 07:16:02;;;;;;;0.40;0.40;;;9.20;99.90;;;;;;5096315;28;20830;-81
2023/11/01 07:18:30;;;;;;;0.47;0.37;;;9.20;99.90;;;;;;5096184;28;20444;-80
2023/11/01 07:20:57;;;;;;;0.57;0.57;;;9.20;99.90;;;;;;5096028;28;20479;-81
2023/11/01 07:23:24;;;;;;;0.30;0.30;;;9.30;99.90;;;;;;5096047;28;20470;-81
2023/11/01 07:25:51;;;;;;;0.30;0.30;;;9.40;99.90;;;;;;5096094;28;20475;-81
2023/11/01 07:28:17;;;;;;;0.30;0.30;;;9.40;99.90;;;;;;5095661;28;20969;-80
2023/11/01 07:30:46;;;;;;;3.53;0.50;;;9.40;99.90;;;;;;5095613;28;20451;-81
2023/11/01 07:33:14;;;;;;;0.50;0.50;;;9.50;99.90;;;;;;5095799;28;20444;-80
2023/11/01 07:35:42;;;;;;;0.47;0.33;;;9.50;99.90;;;;;;5095863;28;20447;-80
2023/11/01 07:38:09;;;;;;;0.40;0.40;;;9.50;99.90;;;;;;5095913;28;20448;-81
2023/11/01 07:40:35;;;;;;;0.40;0.30;;;9.60;99.90;;;;;;5095709;28;20471;-81
2023/11/01 07:43:02;;;;;;;0.40;0.33;;;9.60;99.90;;;;;;5095797;28;20443;-81
2023/11/01 07:45:29;;;;;;;0.30;0.30;;;9.60;99.90;;;;;;5095629;28;20444;-81
2023/11/01 07:47:56;;;;;;;0.30;0.30;;;9.60;99.90;;;;;;5095901;28;20450;-81
2023/11/01 07:50:23;;;;;;;0.40;0.40;;;9.70;99.90;;;;;;5095583;28;20451;-80
2023/11/01 07:52:51;;;;;;;0.40;0.40;;;9.80;99.90;;;;;;5095224;28;20448;-81
2023/11/01 07:55:18;;;;;;;0.60;0.40;;;9.80;99.90;;;;;;5093782;28;20471;-81
2023/11/01 07:57:45;;;;;;;0.40;0.40;;;9.90;99.90;;;;;;5095807;28;20448;-81
2023/11/01 08:00:13;;;;;;;0.43;0.30;;;10.00;99.90;;;;;;5094984;28;20999;-81
2023/11/01 08:02:40;;;;;;;0.97;0.50;;;10.10;99.90;;;;;;5095027;28;20480;-81
2023/11/01 08:05:07;;;;;;;0.40;0.33;;;10.20;99.90;;;;;;5095490;28;20456;-80
2023/11/01 08:07:34;;;;;;;0.50;0.43;;;10.30;99.90;;;;;;5094875;28;20455;-80
2023/11/01 08:10:02;;;;;;;0.30;0.30;;;10.40;99.90;;;;;;5094879;28;20441;-81
2023/11/01 08:12:29;;;;;;;3.07;0.47;;;10.50;99.90;;;;;;5095128;28;20805;-80
2023/11/01 08:14:55;;;;;;;0.70;0.60;;;10.60;99.90;;;;;;5094656;28;20467;-80
2023/11/01 08:17:22;;;;;;;0.80;0.43;;;10.80;99.90;;;;;;5094974;28;20444;-80
2023/11/01 08:19:49;;;;;;;0.97;0.43;;;10.80;99.90;;;;;;5095078;28;20488;-80
2023/11/01 08:22:16;;;;;;;0.90;0.57;;;10.90;99.90;;;;;;5094955;28;20435;-80
2023/11/01 08:24:42;;;;;;;0.97;0.30;;;11.10;99.90;;;;;;5094803;28;20468;-80
2023/11/01 08:27:11;;;;;;;1.90;0.40;;;11.20;99.90;;;;;;5095043;28;20440;-81
2023/11/01 08:29:42;;;;;;;0.50;0.30;;;11.30;99.90;;;;;;5094768;28;20452;-81
2023/11/01 08:32:08;;;;;;;0.40;0.30;;;11.50;99.90;;;;;;5094452;28;20928;-81
2023/11/01 08:34:35;;;;;;;0.50;0.50;;;11.70;99.90;;;;;;5094607;28;20463;-81
2023/11/01 08:37:02;;;;;;;0.30;0.30;;;11.90;99.90;;;;;;5094390;28;20802;-81
2023/11/01 08:39:29;;;;;;;0.30;0.30;;;12.00;99.90;;;;;;5094545;28;20497;-82
2023/11/01 08:41:56;;;;;;;0.40;0.30;;;12.20;99.90;;;;;;5094455;28;20479;-80
2023/11/01 08:44:24;;;;;;;0.40;0.40;;;12.50;99.90;;;;;;5094444;28;20452;-81
2023/11/01 08:46:50;;;;;;;1.27;0.60;;;13.20;99.90;;;;;;5094448;28;20527;-81
2023/11/01 08:49:17;;;;;;;4.77;0.40;;;13.80;99.90;;;;;;5094147;28;20444;-81
2023/11/01 08:51:44;;;;;;;0.30;0.30;;;14.30;99.90;;;;;;5094311;28;20463;-82
2023/11/01 08:54:11;;;;;;;0.30;0.30;;;14.80;99.90;;;;;;5094248;28;20468;-81
2023/11/01 08:56:37;;;;;;;0.60;0.40;;;15.50;99.90;;;;;;5094224;28;20436;-81
2023/11/01 08:59:05;;;;;;;0.40;0.40;;;16.40;99.90;;;;;;5093929;28;20479;-81
2023/11/01 09:01:33;;;;;;;0.60;0.50;;;17.40;99.90;;;;;;5094134;28;20495;-81
2023/11/01 09:04:00;;;;;;;0.60;0.40;;;18.20;99.90;;;;;;5094119;28;20559;-81
2023/11/01 09:06:28;;;;;;;1.53;0.50;;;18.70;99.90;;;;;;5093852;28;20546;-81
2023/11/01 09:08:54;;;;;;;1.70;0.30;;;19.20;99.90;;;;;;5094054;28;20497;-81
2023/11/01 09:11:23;;;;;;;0.80;0.50;;;19.70;99.90;;;;;;5094022;28;20458;-81
2023/11/01 09:13:50;;;;;;;0.30;0.30;;;20.40;99.90;;;;;;5093819;28;20471;-81
2023/11/01 09:16:18;;;;;;;0.63;0.60;;;20.90;99.90;;;;;;5093661;28;20998;-81
2023/11/01 09:18:46;;;;;;;1.40;0.53;;;21.10;99.90;;;;;;5093599;28;20936;-81
2023/11/01 09:21:12;;;;;;;0.40;0.33;;;21.00;99.90;;;;;;5093956;28;20490;-81
2023/11/01 09:23:39;;;;;;;0.80;0.43;;;21.30;99.90;;;;;;5093786;28;20475;-81
2023/11/01 09:26:09;;;;;;;0.70;0.40;;;21.30;99.90;;;;;;5093897;28;20809;-81
2023/11/01 09:28:36;;;;;;;1.00;0.40;;;21.00;99.90;;;;;;5093476;28;20790;-81
2023/11/01 09:31:02;;;;;;;0.40;0.40;;;20.80;99.90;;;;;;5093426;28;20517;-81
2023/11/01 09:33:29;;;;;;;3.50;0.43;;;20.10;99.90;;;;;;5093617;28;20471;-81
2023/11/01 09:35:57;;;;;;;1.90;0.50;;;19.30;99.90;;;;;;5093362;28;20789;-82
2023/11/01 09:38:24;;;;;;;0.40;0.40;;;18.70;99.90;;;;;;5093290;28;20459;-82
2023/11/01 09:40:52;;;;;;;0.97;0.40;;;18.20;99.90;;;;;;5093521;28;20844;-82
2023/11/01 09:43:20;;;;;;;0.40;0.30;;;18.20;99.90;;;;;;5093522;28;20464;-82
2023/11/01 09:45:48;;;;;;;0.60;0.60;;;18.60;99.90;;;;;;5093244;28;20448;-81
2023/11/01 09:48:16;;;;;;;1.37;0.40;;;18.80;99.90;;;;;;5093186;28;20444;-81
2023/11/01 09:50:47;;;;;;;0.33;0.33;;;18.60;99.90;;;;;;5093189;28;20520;-81
2023/11/01 09:53:16;;;;;;;0.40;0.40;;;18.50;99.90;;;;;;5093052;28;20531;-81
2023/11/01 09:55:42;;;;;;;0.50;0.40;;;18.40;99.90;;;;;;5093473;28;20424;-81
2023/11/01 09:58:10;;;;;;;0.30;0.30;;;18.20;99.90;;;;;;5093095;28;20443;-82
2023/11/01 10:00:38;;;;;;;0.50;0.30;;;17.80;99.90;;;;;;5092984;28;20480;-82
2023/11/01 10:03:05;;;;;;;0.60;0.50;;;17.50;99.90;;;;;;5092856;28;21002;-82
2023/11/01 10:05:32;;;;;;;0.60;0.40;;;17.30;99.90;;;;;;5093011;28;20444;-81
2023/11/01 10:07:58;;;;;;;0.50;0.50;;;16.90;99.90;;;;;;5093262;28;20443;-82
2023/11/01 10:10:27;;;;;;;0.40;0.30;;;16.30;99.90;;;;;;5093484;28;20463;-81
2023/11/01 10:12:53;;;;;;;0.40;0.33;;;16.10;99.90;;;;;;5093532;28;20433;-81
2023/11/01 10:15:21;;;;;;;0.47;0.47;;;16.00;99.90;;;;;;5093146;28;20471;-81
2023/11/01 10:17:49;;;;;;;0.40;0.30;;;15.90;99.90;;;;;;5093887;28;20455;-80
2023/11/01 10:20:22;;;;;;;0.40;0.30;;;15.70;99.90;;;;;;5096936;28;21052;-81
2023/11/01 10:22:49;;;;;;;0.57;0.40;;;15.60;99.90;;;;;;5097416;28;20424;-81
2023/11/01 10:25:16;;;;;;;1.57;0.40;;;15.70;99.90;;;;;;5096870;28;20474;-80
2023/11/01 10:27:44;;;;;;;0.60;0.30;;;15.80;99.90;;;;;;5097206;28;20440;-83
2023/11/01 10:30:11;;;;;;;0.40;0.40;;;15.90;99.90;;;;;;5097966;28;20446;-83
2023/11/01 10:32:38;;;;;;;0.40;0.40;;;16.00;99.90;;;;;;5096862;28;20909;-83
2023/11/01 10:35:11;;;;;;;2.90;0.40;;;16.00;99.90;;;;;;5097062;28;20495;-79
2023/11/01 10:37:38;;;;;;;0.50;0.50;;;16.10;99.90;;;;;;5096737;28;20443;-79
2023/11/01 10:40:07;;;;;;;0.40;0.30;;;16.10;99.90;;;;;;5096889;28;20444;-80
2023/11/01 10:42:39;;;;;;;1.33;0.47;;;16.10;99.90;;;;;;5096787;28;20479;-84
2023/11/01 10:45:08;;;;;;;0.77;0.77;;;16.10;99.90;;;;;;5096629;28;20824;-83
2023/11/01 10:47:36;;;;;;;0.40;0.40;;;16.20;99.90;;;;;;5096787;28;20514;-82
2023/11/01 10:50:05;;;;;;;0.40;0.37;;;15.90;99.90;;;;;;5097272;28;20861;-82
2023/11/01 10:52:34;;;;;;;0.43;0.40;;;15.90;99.90;;;;;;5096670;28;20444;-81
2023/11/01 10:55:03;;;;;;;0.30;0.30;;;15.80;99.90;;;;;;5096523;28;20815;-81
2023/11/01 10:57:31;;;;;;;0.50;0.40;;;15.70;99.90;;;;;;5096547;28;20538;-81
2023/11/01 11:00:08;;;;;;;0.30;0.30;;;15.50;99.90;;;;;;5096652;28;20815;-82
2023/11/01 11:02:42;;;;;;;0.37;0.37;;;15.50;99.90;;;;;;5096045;28;20495;-81
2023/11/01 11:05:13;;;;;;;0.53;0.33;;;15.60;99.90;;;;;;5096699;28;20460;-81
2023/11/01 11:07:48;;;;;;;0.73;0.40;;;15.70;99.90;;;;;;5096186;28;20950;-81
2023/11/01 11:10:25;;;;;;;0.50;0.50;;;15.70;99.90;;;;;;5096088;28;20432;-82
2023/11/01 11:13:26;;;;;;;0.87;0.50;;;15.70;99.90;;;;;;5096394;28;20424;-82
2023/11/01 11:15:59;;;;;;;0.40;0.37;;;15.60;99.90;;;;;;5096752;28;20833;-81
2023/11/01 11:18:28;;;;;;;0.40;0.40;;;15.70;99.90;;;;;;5095973;28;20432;-82
2023/11/01 11:20:58;;;;;;;0.30;0.30;;;15.80;99.90;;;;;;5096115;28;20484;-81
2023/11/01 11:23:31;;;;;;;0.97;0.40;;;15.60;99.90;;;;;;5096142;28;20475;-82
2023/11/01 11:25:59;;;;;;;6.27;0.67;;;15.70;99.90;;;;;;5095762;28;20853;-82
2023/11/01 11:28:46;;;;;;;0.50;0.50;;;15.70;99.90;;;;;;5095723;28;20440;-81
2023/11/01 11:31:15;;;;;;;2.73;0.30;;;15.60;99.90;;;;;;5095674;28;20434;-82
2023/11/01 11:34:14;;;;;;;0.47;0.33;;;15.40;99.90;;;;;;5095515;28;20494;-82
2023/11/01 11:37:11;;;;;;;2.63;0.50;;;15.20;99.90;;;;;;5095922;28;20450;-82
2023/11/01 11:40:00;;;;;;;0.40;0.30;;;15.20;99.90;;;;;;5096090;28;20425;-83
2023/11/01 11:42:51;;;;;;;0.30;0.30;;;15.10;99.90;;;;;;5095431;28;20994;-81
2023/11/01 11:45:31;;;;;;;0.40;0.30;;;15.10;99.90;;;;;;5095666;28;20502;-81
2023/11/01 11:47:58;;;;;;;3.03;0.40;;;15.10;99.90;;;;;;5095588;28;20875;-82
2023/11/01 11:50:26;;;;;;;0.67;0.40;;;15.20;99.90;;;;;;5095577;28;20446;-82
2023/11/01 11:52:53;;;;;;;0.40;0.30;;;15.20;99.90;;;;;;5095216;28;20471;-82
2023/11/01 11:55:44;;;;;;;1.57;0.33;;;15.30;99.90;;;;;;5095377;28;20498;-82
2023/11/01 11:58:11;;;;;;;0.87;0.40;;;15.40;99.90;;;;;;5095350;28;20813;-82
2023/11/01 12:00:45;;;;;;;0.40;0.40;;;15.50;99.90;;;;;;5095309;28;20471;-82
2023/11/01 12:03:22;;;;;;;0.40;0.40;;;15.60;99.90;;;;;;5094840;28;20912;-81
2023/11/01 12:05:57;;;;;;;1.13;0.40;;;15.70;99.90;;;;;;5096174;28;20485;-82
2023/11/01 12:08:37;;;;;;;0.30;0.30;;;15.80;99.90;;;;;;5095240;28;20791;-82
2023/11/01 12:11:05;;;;;;;0.40;0.40;;;15.80;99.90;;;;;;5094944;28;20424;-82
2023/11/01 12:13:46;;;;;;;0.67;0.33;;;15.80;99.90;;;;;;5095053;28;20460;-82
2023/11/01 12:16:26;;;;;;;2.17;0.57;;;15.70;99.90;;;;;;5095398;28;20436;-82
2023/11/01 12:19:13;;;;;;;0.40;0.30;;;15.60;99.90;;;;;;5095089;28;20432;-82
2023/11/01 12:21:42;;;;;;;0.67;0.50;;;15.50;99.90;;;;;;5102304;28;20491;-82
2023/11/01 12:24:10;;;;;;;0.40;0.30;;;15.50;99.90;;;;;;5095857;28;20463;-82
2023/11/01 12:26:58;;;;;;;0.40;0.40;;;15.40;99.90;;;;;;5094591;28;20453;-82
2023/11/01 12:29:34;;;;;;;0.40;0.30;;;15.30;99.90;;;;;;5094516;28;20455;-82
2023/11/01 12:32:06;;;;;;;0.40;0.40;;;15.20;99.90;;;;;;5094627;28;20781;-82
2023/11/01 12:34:33;;;;;;;0.53;0.30;;;15.20;99.90;;;;;;5094646;28;20467;-82
2023/11/01 12:37:03;;;;;;;0.40;0.30;;;15.10;99.90;;;;;;5094685;28;20450;-82
2023/11/01 12:39:30;;;;;;;0.40;0.30;;;15.10;99.90;;;;;;5094646;28;20440;-82
2023/11/01 12:41:57;;;;;;;3.47;0.80;;;15.10;99.90;;;;;;5094710;28;20482;-82
2023/11/01 12:44:24;;;;;;;0.70;0.40;;;15.20;99.90;;;;;;5094467;28;20470;-82
2023/11/01 12:46:51;;;;;;;0.40;0.40;;;15.30;99.90;;;;;;5094212;28;20937;-81
2023/11/01 12:49:18;;;;;;;0.43;0.40;;;15.30;99.90;;;;;;5094499;28;20439;-82
2023/11/01 12:51:44;;;;;;;0.50;0.40;;;15.30;99.90;;;;;;5094599;28;20444;-82
2023/11/01 12:54:12;;;;;;;0.30;0.30;;;15.30;99.90;;;;;;5093988;28;20972;-81
2023/11/01 12:56:39;;;;;;;0.67;0.50;;;15.30;99.90;;;;;;5094240;28;20848;-82
2023/11/01 12:59:06;;;;;;;0.40;0.30;;;15.20;99.90;;;;;;5093995;28;20447;-82